Time;durP1;ratioP1;P1;durP2;ratioP2;P2;SDS_P1;SDS_P2;PMS_P1;PMS_P2;Temp;Humidity;BMP_temperature;BMP_pressure;BME280_temperature;BME280_humidity;BME280_pressure;Samples;Min_cycle;Max_cycle;Signal;HPM_P1;HPM_P2
2023/09/17 00:01:05;;;;;;;9.02;7.80;;;19.60;73.50;;;;;;4987355;28;20026;-86
2023/09/17 00:03:31;;;;;;;8.13;6.88;;;19.50;73.30;;;;;;4988265;28;20118;-86
2023/09/17 00:05:58;;;;;;;7.97;6.82;;;19.50;73.10;;;;;;4993376;28;20395;-87
2023/09/17 00:08:24;;;;;;;8.45;7.50;;;19.60;73.00;;;;;;4995910;28;20022;-86
2023/09/17 00:10:49;;;;;;;9.55;8.32;;;19.60;72.80;;;;;;4991345;28;20018;-86
2023/09/17 00:13:15;;;;;;;9.60;8.60;;;19.60;72.60;;;;;;4999178;28;20077;-87
2023/09/17 00:15:41;;;;;;;10.63;9.07;;;19.50;72.40;;;;;;5006777;28;20045;-86
2023/09/17 00:18:07;;;;;;;8.82;6.50;;;19.40;72.60;;;;;;4992336;28;20038;-87
2023/09/17 00:20:32;;;;;;;10.63;8.63;;;19.50;72.80;;;;;;5000303;28;20030;-87
2023/09/17 00:22:59;;;;;;;8.70;7.60;;;19.40;72.40;;;;;;4987559;28;20144;-87
2023/09/17 00:25:25;;;;;;;9.48;7.60;;;19.50;72.50;;;;;;4989082;28;20110;-87
2023/09/17 00:27:51;;;;;;;8.57;7.60;;;19.40;72.50;;;;;;5000522;28;20029;-87
2023/09/17 00:30:17;;;;;;;8.38;7.47;;;19.50;72.40;;;;;;4998074;28;20029;-87
2023/09/17 00:32:43;;;;;;;8.15;7.30;;;19.50;72.30;;;;;;4997405;28;20057;-86
2023/09/17 00:35:10;;;;;;;8.27;7.38;;;19.50;72.20;;;;;;4985689;28;20026;-87
2023/09/17 00:37:35;;;;;;;7.88;7.10;;;19.50;72.20;;;;;;5014117;28;20026;-86
2023/09/17 00:40:01;;;;;;;10.18;8.13;;;19.40;72.20;;;;;;4997153;28;20478;-87
2023/09/17 00:42:27;;;;;;;7.70;6.57;;;19.40;72.20;;;;;;4994163;28;20022;-87
2023/09/17 00:44:52;;;;;;;8.02;7.22;;;19.30;72.40;;;;;;4989204;28;20142;-86
2023/09/17 00:47:18;;;;;;;9.40;8.43;;;19.30;72.50;;;;;;4998583;28;20014;-86
2023/09/17 00:49:44;;;;;;;7.75;6.72;;;19.30;72.70;;;;;;4996206;28;20048;-86
2023/09/17 00:52:19;;;;;;;10.30;9.00;;;19.30;72.60;;;;;;4989276;28;20117;-86
2023/09/17 00:54:47;;;;;;;9.45;7.97;;;19.20;72.80;;;;;;4989727;28;20026;-86
2023/09/17 00:57:15;;;;;;;8.10;7.07;;;19.10;73.40;;;;;;4999946;28;20113;-86
2023/09/17 00:59:42;;;;;;;7.93;6.15;;;19.10;73.60;;;;;;4993267;28;20022;-86
2023/09/17 01:02:08;;;;;;;7.97;6.68;;;19.00;73.90;;;;;;5010007;28;20034;-86
2023/09/17 01:04:33;;;;;;;8.98;8.07;;;19.00;74.40;;;;;;5004793;28;20556;-86
2023/09/17 01:07:00;;;;;;;9.60;8.50;;;18.80;74.80;;;;;;4997630;28;20647;-86
2023/09/17 01:09:27;;;;;;;12.88;10.88;;;18.70;75.60;;;;;;4993727;28;20509;-85
2023/09/17 01:11:52;;;;;;;11.45;9.13;;;18.60;76.50;;;;;;4990399;28;20022;-84
2023/09/17 01:14:19;;;;;;;10.45;9.27;;;18.40;76.90;;;;;;4995554;28;20038;-84
2023/09/17 01:16:45;;;;;;;10.25;9.25;;;18.40;77.20;;;;;;4990848;28;20026;-85
2023/09/17 01:19:17;;;;;;;10.82;8.80;;;18.30;77.40;;;;;;5001251;28;20026;-85
2023/09/17 01:21:56;;;;;;;11.38;10.13;;;18.30;77.40;;;;;;4992286;28;20426;-84
2023/09/17 01:24:40;;;;;;;11.45;9.85;;;18.30;77.40;;;;;;4989378;28;20022;-85
2023/09/17 01:27:07;;;;;;;11.23;9.80;;;18.20;77.40;;;;;;4993392;28;20010;-86
2023/09/17 01:29:38;;;;;;;8.63;7.75;;;18.20;77.70;;;;;;4992051;28;20030;-85
2023/09/17 01:32:04;;;;;;;13.05;10.70;;;18.20;77.50;;;;;;4988974;28;20117;-85
2023/09/17 01:34:31;;;;;;;12.48;11.10;;;18.20;77.40;;;;;;4994176;28;20030;-85
2023/09/17 01:37:00;;;;;;;12.50;10.75;;;18.10;77.40;;;;;;4991598;28;20073;-85
2023/09/17 01:39:31;;;;;;;10.23;8.98;;;18.00;77.90;;;;;;4990354;28;20023;-84
2023/09/17 01:41:58;;;;;;;13.48;11.13;;;18.00;78.20;;;;;;4996972;28;20029;-87
2023/09/17 01:44:24;;;;;;;16.42;13.63;;;18.00;78.80;;;;;;4996818;28;20101;-87
2023/09/17 01:46:51;;;;;;;14.55;12.55;;;17.90;79.40;;;;;;4989713;28;20118;-87
2023/09/17 01:49:17;;;;;;;14.43;12.45;;;17.80;80.30;;;;;;5006094;28;20050;-87
2023/09/17 01:51:43;;;;;;;13.02;10.02;;;17.70;80.70;;;;;;4994992;28;20458;-86
2023/09/17 01:54:10;;;;;;;12.75;10.23;;;17.70;80.80;;;;;;4993091;28;20432;-86
2023/09/17 01:56:37;;;;;;;9.40;8.40;;;17.70;81.10;;;;;;4996767;28;20083;-86
2023/09/17 01:59:04;;;;;;;11.70;10.50;;;17.70;80.80;;;;;;5019747;28;20018;-87
2023/09/17 02:01:30;;;;;;;9.07;8.18;;;17.80;80.80;;;;;;4989140;28;20033;-87
2023/09/17 02:03:57;;;;;;;12.32;11.00;;;17.80;80.60;;;;;;4989517;28;20431;-85
2023/09/17 02:06:23;;;;;;;11.48;9.77;;;17.80;80.50;;;;;;5018584;28;20026;-87
2023/09/17 02:08:48;;;;;;;11.05;9.95;;;17.70;80.60;;;;;;4991113;28;20026;-86
2023/09/17 02:11:14;;;;;;;10.93;9.55;;;17.60;81.20;;;;;;4988929;28;20042;-86
2023/09/17 02:13:40;;;;;;;10.95;9.68;;;17.60;80.80;;;;;;4987057;28;20066;-86
2023/09/17 02:16:05;;;;;;;10.52;8.68;;;17.60;80.80;;;;;;4991615;28;20084;-86
2023/09/17 02:18:31;;;;;;;10.18;9.18;;;17.60;81.00;;;;;;4988635;28;20448;-86
2023/09/17 02:20:56;;;;;;;11.70;10.27;;;17.60;81.00;;;;;;4986903;28;20025;-85
2023/09/17 02:23:22;;;;;;;9.63;8.10;;;17.60;81.90;;;;;;4987185;28;20068;-85
2023/09/17 02:25:48;;;;;;;13.40;11.20;;;17.60;81.10;;;;;;4987367;28;20488;-85
2023/09/17 02:28:13;;;;;;;12.07;9.65;;;17.50;81.30;;;;;;4987409;28;20449;-86
2023/09/17 02:30:39;;;;;;;11.38;10.18;;;17.40;81.50;;;;;;4998327;28;20069;-86
2023/09/17 02:33:06;;;;;;;11.82;10.10;;;17.40;81.70;;;;;;4991089;28;20041;-86
2023/09/17 02:35:33;;;;;;;9.88;8.68;;;17.40;82.10;;;;;;4992839;28;20034;-86
2023/09/17 02:37:58;;;;;;;10.15;8.30;;;17.30;81.30;;;;;;4987643;28;20028;-86
2023/09/17 02:40:24;;;;;;;11.18;9.07;;;17.40;81.20;;;;;;4995340;28;20101;-85
2023/09/17 02:42:50;;;;;;;10.32;9.23;;;17.40;81.40;;;;;;4990096;28;20077;-85
2023/09/17 02:45:16;;;;;;;11.13;9.88;;;17.40;81.20;;;;;;4988057;28;20030;-86
2023/09/17 02:47:41;;;;;;;10.63;9.52;;;17.40;81.20;;;;;;4979927;28;20061;-85
2023/09/17 02:50:08;;;;;;;10.07;8.90;;;17.30;81.10;;;;;;4999141;28;20389;-86
2023/09/17 02:52:34;;;;;;;10.38;8.57;;;17.30;81.10;;;;;;4989144;28;20045;-85
2023/09/17 02:54:59;;;;;;;9.63;8.35;;;17.30;81.00;;;;;;5012091;28;20021;-85
2023/09/17 02:57:25;;;;;;;10.23;9.13;;;17.30;80.80;;;;;;4987233;28;20026;-85
2023/09/17 02:59:51;;;;;;;8.23;7.30;;;17.30;80.90;;;;;;4989679;28;20496;-87
2023/09/17 03:02:17;;;;;;;10.98;8.05;;;17.20;80.90;;;;;;4991546;28;20027;-86
2023/09/17 03:04:43;;;;;;;9.23;7.72;;;17.20;81.60;;;;;;4989207;28;20153;-86
2023/09/17 03:07:09;;;;;;;8.13;6.88;;;17.30;81.80;;;;;;4989371;28;20109;-86
2023/09/17 03:09:34;;;;;;;6.90;6.13;;;17.20;81.90;;;;;;4991566;28;20034;-87
2023/09/17 03:12:00;;;;;;;9.38;7.70;;;17.30;82.00;;;;;;4989805;28;20540;-87
2023/09/17 03:14:25;;;;;;;8.90;7.60;;;17.30;82.40;;;;;;4992191;28;20143;-86
2023/09/17 03:16:51;;;;;;;9.88;8.68;;;17.20;83.20;;;;;;4991830;28;20015;-87
2023/09/17 03:19:19;;;;;;;9.18;7.70;;;17.20;83.60;;;;;;5000270;28;20026;-87
2023/09/17 03:21:44;;;;;;;10.68;8.10;;;17.20;84.00;;;;;;5007106;28;20044;-87
2023/09/17 03:24:11;;;;;;;11.55;8.50;;;17.10;84.30;;;;;;4992077;28;20026;-87
2023/09/17 03:26:40;;;;;;;11.63;8.48;;;17.00;85.00;;;;;;5021558;28;20077;-86
2023/09/17 03:29:07;;;;;;;11.60;9.40;;;17.00;85.30;;;;;;4990817;28;20421;-86
2023/09/17 03:31:33;;;;;;;10.60;9.52;;;16.90;85.60;;;;;;4991932;28;20097;-87
2023/09/17 03:33:59;;;;;;;11.40;10.20;;;16.90;85.90;;;;;;5001953;28;20082;-87
2023/09/17 03:36:25;;;;;;;9.95;8.93;;;16.90;86.10;;;;;;4999528;28;20096;-84
2023/09/17 03:38:50;;;;;;;11.38;9.02;;;16.90;86.20;;;;;;4996282;28;20477;-85
2023/09/17 03:41:16;;;;;;;11.30;9.88;;;16.90;86.30;;;;;;5002876;28;20080;-85
2023/09/17 03:43:41;;;;;;;10.02;9.00;;;16.80;86.80;;;;;;5003894;28;20021;-84
2023/09/17 03:46:07;;;;;;;11.00;8.70;;;16.80;86.90;;;;;;4991300;28;20039;-85
2023/09/17 03:48:33;;;;;;;9.93;8.85;;;16.80;86.80;;;;;;5007020;28;20029;-85
2023/09/17 03:51:00;;;;;;;10.73;8.35;;;16.80;87.20;;;;;;4998044;28;20525;-84
2023/09/17 03:53:26;;;;;;;10.57;9.45;;;16.90;87.00;;;;;;5000378;28;20130;-84
2023/09/17 03:55:52;;;;;;;9.25;8.25;;;16.90;87.40;;;;;;4998928;28;20022;-84
2023/09/17 03:58:18;;;;;;;9.48;8.40;;;16.90;87.70;;;;;;4986183;28;20038;-84
2023/09/17 04:00:44;;;;;;;10.25;8.30;;;16.90;87.70;;;;;;4988499;28;20510;-84
2023/09/17 04:03:09;;;;;;;10.32;9.00;;;17.00;87.60;;;;;;4990780;28;20022;-83
2023/09/17 04:05:36;;;;;;;9.82;8.23;;;17.00;87.50;;;;;;4992006;28;20026;-83
2023/09/17 04:08:03;;;;;;;9.18;7.72;;;17.10;87.40;;;;;;4989293;28;20485;-84
2023/09/17 04:10:28;;;;;;;8.63;7.65;;;17.10;87.20;;;;;;4989607;28;20026;-84
2023/09/17 04:12:54;;;;;;;11.63;10.32;;;17.20;87.00;;;;;;4994772;28;20817;-84
2023/09/17 04:15:20;;;;;;;11.70;10.50;;;17.10;87.50;;;;;;4994971;28;20503;-85
2023/09/17 04:17:47;;;;;;;12.25;10.85;;;17.10;88.20;;;;;;4990932;28;20140;-85
2023/09/17 04:20:14;;;;;;;13.38;10.70;;;16.90;89.30;;;;;;4996902;28;20355;-86
2023/09/17 04:22:43;;;;;;;11.85;10.10;;;16.90;89.90;;;;;;4991120;28;20037;-86
2023/09/17 04:25:09;;;;;;;12.45;10.23;;;16.90;90.10;;;;;;4980758;28;20528;-84
2023/09/17 04:27:36;;;;;;;9.40;8.20;;;16.90;90.30;;;;;;4985644;28;20045;-86
2023/09/17 04:30:05;;;;;;;8.63;7.70;;;16.90;90.20;;;;;;5003037;28;20030;-88
2023/09/17 04:32:34;;;;;;;8.57;7.40;;;17.00;90.10;;;;;;4994968;28;20030;-87
2023/09/17 04:34:59;;;;;;;11.98;9.98;;;17.10;90.10;;;;;;4990686;28;20101;-87
2023/09/17 04:37:25;;;;;;;10.73;8.88;;;17.00;90.20;;;;;;4992466;28;20536;-88
2023/09/17 04:39:51;;;;;;;9.43;8.43;;;17.10;90.20;;;;;;4992616;28;20029;-88
2023/09/17 04:42:17;;;;;;;10.15;9.15;;;17.10;90.10;;;;;;4994582;28;20480;-87
2023/09/17 04:44:42;;;;;;;12.20;10.18;;;17.10;90.20;;;;;;4999384;28;20398;-89
2023/09/17 04:47:08;;;;;;;10.07;9.00;;;17.10;90.20;;;;;;4995480;28;20034;-88
2023/09/17 04:49:35;;;;;;;10.07;8.07;;;17.10;90.10;;;;;;4994297;28;20397;-87
2023/09/17 04:52:01;;;;;;;10.55;9.50;;;17.10;90.20;;;;;;4992134;28;20026;-87
2023/09/17 04:54:26;;;;;;;12.88;10.23;;;17.10;90.20;;;;;;4998050;28;20069;-87
2023/09/17 04:56:52;;;;;;;12.93;11.43;;;17.10;90.30;;;;;;5009639;28;20425;-86
2023/09/17 04:59:17;;;;;;;10.50;9.40;;;17.00;90.60;;;;;;4993138;28;20080;-87
2023/09/17 05:01:43;;;;;;;10.60;9.50;;;17.10;90.70;;;;;;4988822;28;20109;-84
2023/09/17 05:04:09;;;;;;;11.13;9.77;;;17.10;90.70;;;;;;5012494;28;20034;-85
2023/09/17 05:06:36;;;;;;;13.45;12.05;;;17.10;90.70;;;;;;4987609;28;20032;-86
2023/09/17 05:09:02;;;;;;;13.52;12.13;;;17.10;90.80;;;;;;4997273;28;20076;-86
2023/09/17 05:11:28;;;;;;;18.02;16.13;;;17.00;91.10;;;;;;4990479;28;20485;-85
2023/09/17 05:13:53;;;;;;;17.17;14.50;;;16.90;91.80;;;;;;4990042;28;20038;-86
2023/09/17 05:16:19;;;;;;;12.98;11.63;;;16.90;92.00;;;;;;4989528;28;20046;-84
2023/09/17 05:18:44;;;;;;;10.55;9.15;;;16.90;92.00;;;;;;4986049;28;20030;-86
2023/09/17 05:21:11;;;;;;;13.70;12.10;;;17.00;91.90;;;;;;4984051;28;20034;-86
2023/09/17 05:23:38;;;;;;;13.35;11.95;;;16.90;92.00;;;;;;4988048;28;20034;-84
2023/09/17 05:26:03;;;;;;;12.15;10.82;;;17.00;92.00;;;;;;4992439;28;20384;-86
2023/09/17 05:28:29;;;;;;;12.85;10.63;;;17.00;91.90;;;;;;4992215;28;20117;-85
2023/09/17 05:30:56;;;;;;;11.63;10.43;;;17.00;91.80;;;;;;4989441;28;20129;-84
2023/09/17 05:33:22;;;;;;;14.30;12.52;;;17.00;91.80;;;;;;4989656;28;20116;-85
2023/09/17 05:35:47;;;;;;;12.38;11.07;;;17.00;91.80;;;;;;4999040;28;20076;-85
2023/09/17 05:38:13;;;;;;;14.43;12.85;;;17.00;91.80;;;;;;5000764;28;20493;-86
2023/09/17 05:40:39;;;;;;;15.18;13.00;;;17.00;92.00;;;;;;4995031;28;20469;-85
2023/09/17 05:43:04;;;;;;;11.50;10.05;;;17.00;92.40;;;;;;4989220;28;20030;-85
2023/09/17 05:45:30;;;;;;;10.90;9.75;;;17.00;92.30;;;;;;4993202;28;20038;-85
2023/09/17 05:47:55;;;;;;;13.98;12.48;;;17.00;92.30;;;;;;5001224;28;20026;-86
2023/09/17 05:50:21;;;;;;;11.93;10.15;;;17.10;92.40;;;;;;5010197;28;20105;-85
2023/09/17 05:52:47;;;;;;;12.10;10.77;;;17.00;92.40;;;;;;4990325;28;20146;-85
2023/09/17 05:55:13;;;;;;;10.20;9.15;;;17.10;92.50;;;;;;4997572;28;20481;-85
2023/09/17 05:57:38;;;;;;;10.15;9.05;;;17.10;92.40;;;;;;4994261;28;20053;-86
2023/09/17 06:00:05;;;;;;;11.55;9.75;;;17.10;92.40;;;;;;4987876;28;20019;-86
2023/09/17 06:02:31;;;;;;;11.43;10.18;;;17.20;92.30;;;;;;4986552;28;20485;-85
2023/09/17 06:04:56;;;;;;;11.25;9.45;;;17.20;92.30;;;;;;4983371;28;20069;-85
2023/09/17 06:07:22;;;;;;;11.20;9.18;;;17.20;92.30;;;;;;5002211;28;20010;-84
2023/09/17 06:09:49;;;;;;;12.48;10.63;;;17.20;92.30;;;;;;4984036;28;20026;-86
2023/09/17 06:12:15;;;;;;;12.15;10.65;;;17.20;92.30;;;;;;4984645;28;20489;-85
2023/09/17 06:14:41;;;;;;;12.73;11.27;;;17.20;92.40;;;;;;4985815;28;20089;-87
2023/09/17 06:17:07;;;;;;;10.98;9.32;;;17.20;92.60;;;;;;4985093;28;20072;-85
2023/09/17 06:19:33;;;;;;;11.63;10.10;;;17.20;92.70;;;;;;4994370;28;20489;-86
2023/09/17 06:21:59;;;;;;;10.45;9.00;;;17.10;92.80;;;;;;4979877;28;20489;-87
2023/09/17 06:24:25;;;;;;;11.77;10.25;;;17.10;92.80;;;;;;4988547;28;20096;-85
2023/09/17 06:26:51;;;;;;;10.90;9.05;;;17.10;92.80;;;;;;4993862;28;20081;-85
2023/09/17 06:29:17;;;;;;;11.18;9.98;;;17.00;92.90;;;;;;4991547;28;20404;-85
2023/09/17 06:31:43;;;;;;;11.95;10.35;;;17.10;93.30;;;;;;4990752;28;20105;-87
2023/09/17 06:34:09;;;;;;;12.52;11.20;;;17.00;93.50;;;;;;4996285;28;20401;-86
2023/09/17 06:36:36;;;;;;;10.02;9.02;;;17.00;93.30;;;;;;4986278;28;20030;-87
2023/09/17 06:39:03;;;;;;;9.98;8.27;;;17.00;93.30;;;;;;4989236;28;20026;-85
2023/09/17 06:41:28;;;;;;;8.73;7.20;;;17.00;93.60;;;;;;4995739;28;20014;-85
2023/09/17 06:43:54;;;;;;;9.98;8.68;;;17.10;93.20;;;;;;5007840;28;20400;-86
2023/09/17 06:46:23;;;;;;;12.30;9.13;;;17.00;93.00;;;;;;4993451;28;20111;-87
2023/09/17 06:48:52;;;;;;;9.48;8.45;;;17.00;93.00;;;;;;5025174;28;20023;-87
2023/09/17 06:51:19;;;;;;;8.55;7.57;;;17.00;93.00;;;;;;4992675;28;20118;-87
2023/09/17 06:53:45;;;;;;;9.00;7.32;;;17.10;92.90;;;;;;5023624;28;20072;-86
2023/09/17 06:56:12;;;;;;;9.35;6.53;;;17.20;92.80;;;;;;5001825;28;20461;-86
2023/09/17 06:58:38;;;;;;;10.25;7.82;;;17.20;92.60;;;;;;5004881;28;21788;-86
2023/09/17 07:01:05;;;;;;;8.82;7.60;;;17.20;92.50;;;;;;4990974;28;20026;-86
2023/09/17 07:03:30;;;;;;;9.70;8.38;;;17.20;92.40;;;;;;4997814;28;20018;-85
2023/09/17 07:05:56;;;;;;;11.32;9.38;;;17.20;92.40;;;;;;5023260;28;20022;-85
2023/09/17 07:08:22;;;;;;;9.27;7.82;;;17.20;92.50;;;;;;4994075;28;20105;-85
2023/09/17 07:10:47;;;;;;;9.85;8.15;;;17.10;92.50;;;;;;4988103;28;20072;-85
2023/09/17 07:13:13;;;;;;;9.00;7.70;;;17.10;92.50;;;;;;5022688;28;20645;-85
2023/09/17 07:15:39;;;;;;;10.90;8.43;;;17.10;92.50;;;;;;4986056;28;20385;-85
2023/09/17 07:18:07;;;;;;;8.40;7.25;;;17.10;92.60;;;;;;4991536;28;20049;-90
2023/09/17 07:20:33;;;;;;;10.48;7.78;;;17.20;92.50;;;;;;4989414;28;20018;-86
2023/09/17 07:22:59;;;;;;;8.40;7.35;;;17.30;92.30;;;;;;4992089;28;20481;-85
2023/09/17 07:25:25;;;;;;;8.20;7.15;;;17.30;92.20;;;;;;5002475;28;20030;-83
2023/09/17 07:27:50;;;;;;;6.50;5.38;;;17.30;92.10;;;;;;4998190;28;20030;-83
2023/09/17 07:30:17;;;;;;;7.85;6.70;;;17.40;92.00;;;;;;4997475;28;20027;-85
2023/09/17 07:32:42;;;;;;;8.48;7.20;;;17.40;91.90;;;;;;4969609;28;20111;-84
2023/09/17 07:35:08;;;;;;;7.22;6.53;;;17.50;91.80;;;;;;4991853;28;20037;-85
2023/09/17 07:37:34;;;;;;;6.72;5.60;;;17.50;91.70;;;;;;4994898;28;20029;-84
2023/09/17 07:40:04;;;;;;;7.57;5.78;;;17.60;91.60;;;;;;4985554;28;20476;-83
2023/09/17 07:42:29;;;;;;;6.53;5.90;;;17.70;91.50;;;;;;5022368;28;20117;-82
2023/09/17 07:44:55;;;;;;;7.25;5.72;;;17.70;91.30;;;;;;4988436;28;20142;-84
2023/09/17 07:47:20;;;;;;;7.55;5.18;;;17.80;91.20;;;;;;4988143;28;20109;-83
2023/09/17 07:49:46;;;;;;;8.48;7.47;;;17.80;91.10;;;;;;4984338;28;20018;-83
2023/09/17 07:52:15;;;;;;;10.20;7.90;;;17.70;91.00;;;;;;4986939;28;20025;-83
2023/09/17 07:54:42;;;;;;;8.95;7.50;;;17.60;91.20;;;;;;5000444;28;20465;-82
2023/09/17 07:57:09;;;;;;;9.02;6.03;;;17.70;91.20;;;;;;4986490;28;20105;-82
2023/09/17 07:59:34;;;;;;;8.63;6.63;;;17.70;91.20;;;;;;4988540;28;20034;-83
2023/09/17 08:02:01;;;;;;;8.73;6.30;;;17.70;91.10;;;;;;4985647;28;20464;-83
2023/09/17 08:04:27;;;;;;;7.90;5.88;;;17.80;91.10;;;;;;4988912;28;20030;-83
2023/09/17 08:06:53;;;;;;;9.93;6.93;;;17.90;91.00;;;;;;4992453;28;20018;-83
2023/09/17 08:09:18;;;;;;;9.80;7.53;;;17.90;90.90;;;;;;5002299;28;20393;-84
2023/09/17 08:11:44;;;;;;;8.13;6.78;;;17.90;90.80;;;;;;4986462;28;20022;-82
2023/09/17 08:14:10;;;;;;;9.88;7.70;;;18.00;90.80;;;;;;4991695;28;20038;-83
2023/09/17 08:16:36;;;;;;;8.40;7.40;;;18.00;90.70;;;;;;4993374;28;20026;-82
2023/09/17 08:19:03;;;;;;;11.82;9.80;;;17.90;90.80;;;;;;4986557;28;20050;-83
2023/09/17 08:21:28;;;;;;;10.70;9.25;;;17.80;90.90;;;;;;4982865;28;20030;-83
2023/09/17 08:23:55;;;;;;;10.32;9.23;;;17.80;91.10;;;;;;4987856;28;20038;-83
2023/09/17 08:26:22;;;;;;;9.20;7.57;;;17.80;91.20;;;;;;5007680;28;20020;-83
2023/09/17 08:28:49;;;;;;;12.23;10.73;;;17.80;91.20;;;;;;4987689;28;20045;-83
2023/09/17 08:31:16;;;;;;;11.32;9.93;;;17.70;91.40;;;;;;4981368;28;20030;-83
2023/09/17 08:33:42;;;;;;;12.98;9.98;;;17.70;91.60;;;;;;5002214;28;20034;-83
2023/09/17 08:36:09;;;;;;;12.57;10.68;;;17.70;91.70;;;;;;5003935;28;20045;-83
2023/09/17 08:38:35;;;;;;;12.55;10.10;;;17.70;91.70;;;;;;4985482;28;20026;-83
2023/09/17 08:41:03;;;;;;;16.55;13.73;;;17.80;91.80;;;;;;4988882;28;20027;-83
2023/09/17 08:43:28;;;;;;;13.38;11.95;;;17.60;92.10;;;;;;4988932;28;20080;-83
2023/09/17 08:45:54;;;;;;;17.08;14.73;;;17.60;92.40;;;;;;4987856;28;20034;-83
2023/09/17 08:48:20;;;;;;;12.85;11.05;;;17.50;92.70;;;;;;4981408;28;20026;-83
2023/09/17 08:50:50;;;;;;;17.58;14.80;;;17.50;92.70;;;;;;4994781;28;20035;-83
2023/09/17 08:53:21;;;;;;;16.13;12.25;;;17.50;93.20;;;;;;4983148;28;20042;-83
2023/09/17 08:55:50;;;;;;;13.57;12.13;;;17.50;92.90;;;;;;4998305;28;20068;-85
2023/09/17 08:58:17;;;;;;;17.42;13.82;;;17.60;92.80;;;;;;4992251;28;20030;-88
2023/09/17 09:00:50;;;;;;;18.30;16.30;;;17.60;92.90;;;;;;4983906;28;20163;-88
2023/09/17 09:03:20;;;;;;;15.93;10.95;;;17.50;93.20;;;;;;4993779;28;20035;-88
2023/09/17 09:05:47;;;;;;;13.85;11.52;;;17.50;93.20;;;;;;5005267;28;20026;-88
2023/09/17 09:08:14;;;;;;;16.38;14.40;;;17.60;93.00;;;;;;4990769;28;20026;-86
2023/09/17 09:10:40;;;;;;;14.23;12.63;;;17.70;92.90;;;;;;4986744;28;20354;-88
2023/09/17 09:13:06;;;;;;;13.45;11.25;;;17.70;92.80;;;;;;4992609;28;20039;-91
2023/09/17 09:15:32;;;;;;;14.40;11.88;;;17.80;92.70;;;;;;4996053;28;20037;-91
2023/09/17 09:17:58;;;;;;;13.32;11.55;;;17.90;92.50;;;;;;4991746;28;20030;-87
2023/09/17 09:20:24;;;;;;;17.10;13.95;;;18.00;92.50;;;;;;4986172;28;20068;-88
2023/09/17 09:22:49;;;;;;;14.38;11.68;;;18.00;92.40;;;;;;4983496;28;20057;-87
2023/09/17 09:25:16;;;;;;;14.05;11.88;;;18.10;92.50;;;;;;4988585;28;20027;-87
2023/09/17 09:27:43;;;;;;;14.50;11.48;;;18.20;92.40;;;;;;4991336;28;20054;-87
2023/09/17 09:30:11;;;;;;;11.50;9.82;;;18.20;92.20;;;;;;4987909;28;20040;-87
2023/09/17 09:32:37;;;;;;;13.70;11.82;;;18.40;92.10;;;;;;5003717;28;20062;-88
2023/09/17 09:35:04;;;;;;;15.35;12.50;;;18.30;92.00;;;;;;4988568;28;20050;-87
2023/09/17 09:37:30;;;;;;;16.02;12.27;;;18.30;92.00;;;;;;4988408;28;20022;-87
2023/09/17 09:39:58;;;;;;;12.55;10.95;;;18.30;92.00;;;;;;4986623;28;20077;-87
2023/09/17 09:42:26;;;;;;;14.98;13.15;;;18.40;91.90;;;;;;4992634;28;20101;-88
2023/09/17 09:44:52;;;;;;;13.75;11.20;;;18.50;91.90;;;;;;4993941;28;20019;-88
2023/09/17 09:47:21;;;;;;;13.82;11.35;;;18.60;91.90;;;;;;4993154;28;20065;-88
2023/09/17 09:49:46;;;;;;;13.43;11.52;;;18.70;91.80;;;;;;4986794;28;20537;-88
2023/09/17 09:52:13;;;;;;;15.77;13.27;;;18.70;91.60;;;;;;4991485;28;20030;-90
2023/09/17 09:54:43;;;;;;;16.63;14.18;;;18.70;91.70;;;;;;4989182;28;20034;-87
2023/09/17 09:57:14;;;;;;;13.18;11.50;;;18.70;91.80;;;;;;4987786;28;20037;-82
2023/09/17 09:59:44;;;;;;;15.10;11.73;;;18.80;91.80;;;;;;4980710;28;20080;-83
2023/09/17 10:02:13;;;;;;;15.88;13.77;;;18.90;91.60;;;;;;4986372;28;20519;-82
2023/09/17 10:04:39;;;;;;;15.65;12.60;;;19.00;91.50;;;;;;4983059;28;20038;-83
2023/09/17 10:07:06;;;;;;;17.20;13.80;;;19.10;91.40;;;;;;5002337;28;20381;-81
2023/09/17 10:09:33;;;;;;;15.18;12.48;;;19.10;91.30;;;;;;4986620;28;20038;-83
2023/09/17 10:11:59;;;;;;;17.55;15.05;;;19.20;91.30;;;;;;4983666;28;20485;-82
2023/09/17 10:14:26;;;;;;;19.67;15.45;;;19.20;91.30;;;;;;4984247;28;20036;-81
2023/09/17 10:16:53;;;;;;;17.60;15.07;;;19.20;91.40;;;;;;4985989;28;20444;-82
2023/09/17 10:19:21;;;;;;;19.67;15.85;;;19.30;91.30;;;;;;4984246;28;20397;-88
2023/09/17 10:21:48;;;;;;;15.75;13.75;;;19.30;91.40;;;;;;4984830;28;20019;-89
2023/09/17 10:24:19;;;;;;;13.73;10.95;;;19.30;91.50;;;;;;4994449;28;20080;-88
2023/09/17 10:26:46;;;;;;;18.92;15.65;;;19.40;91.40;;;;;;4993117;28;20052;-88
2023/09/17 10:29:13;;;;;;;21.10;16.85;;;19.40;91.30;;;;;;4989065;28;20046;-88
2023/09/17 10:31:42;;;;;;;17.15;15.10;;;19.50;91.40;;;;;;4993566;28;20023;-88
2023/09/17 10:34:12;;;;;;;22.67;16.35;;;19.60;91.50;;;;;;5004501;28;20038;-89
2023/09/17 10:36:38;;;;;;;30.08;21.80;;;19.70;91.40;;;;;;4988521;28;20039;-89
2023/09/17 10:39:07;;;;;;;25.02;18.33;;;19.60;91.60;;;;;;4987933;28;20478;-88
2023/09/17 10:41:36;;;;;;;18.52;14.88;;;19.60;91.70;;;;;;4991326;28;20025;-89
2023/09/17 10:44:03;;;;;;;20.40;14.07;;;19.70;91.70;;;;;;4993448;28;20030;-87
2023/09/17 10:46:31;;;;;;;31.73;23.17;;;19.80;91.60;;;;;;4985733;28;20514;-88
2023/09/17 10:48:58;;;;;;;30.50;22.52;;;19.70;91.70;;;;;;4984638;28;20051;-85
2023/09/17 10:51:26;;;;;;;23.35;17.08;;;19.60;92.00;;;;;;4985918;28;20042;-85
2023/09/17 10:53:52;;;;;;;22.23;17.42;;;19.70;92.00;;;;;;4987227;28;20128;-85
2023/09/17 10:56:19;;;;;;;24.65;18.17;;;19.80;91.80;;;;;;4984279;28;20030;-85
2023/09/17 10:58:47;;;;;;;23.00;17.08;;;19.90;91.80;;;;;;4988163;28;20026;-85
2023/09/17 11:01:15;;;;;;;27.70;20.15;;;19.90;91.70;;;;;;4999903;28;20394;-85
2023/09/17 11:03:45;;;;;;;28.63;20.42;;;19.90;91.80;;;;;;4982934;28;20030;-85
2023/09/17 11:06:16;;;;;;;26.33;20.13;;;19.90;92.00;;;;;;4987325;28;20481;-85
2023/09/17 11:08:46;;;;;;;22.52;17.90;;;19.80;92.10;;;;;;4983865;28;20076;-85
2023/09/17 11:11:16;;;;;;;28.27;21.17;;;19.80;92.10;;;;;;4983407;28;20022;-87
2023/09/17 11:13:46;;;;;;;23.92;18.98;;;19.80;92.10;;;;;;4987672;28;20580;-85
2023/09/17 11:16:24;;;;;;;21.83;18.15;;;19.90;92.20;;;;;;4986845;28;20057;-85
2023/09/17 11:19:13;;;;;;;23.42;17.13;;;19.90;92.10;;;;;;4987666;28;20026;-85
2023/09/17 11:21:47;;;;;;;25.67;19.27;;;20.00;92.10;;;;;;4980214;28;20122;-85
2023/09/17 11:24:13;;;;;;;25.77;19.20;;;20.10;92.00;;;;;;4986285;28;20473;-85
2023/09/17 11:26:41;;;;;;;26.02;19.08;;;20.20;91.90;;;;;;4988951;28;20018;-85
2023/09/17 11:29:08;;;;;;;24.90;19.05;;;20.30;91.70;;;;;;4989607;28;20033;-85
2023/09/17 11:31:36;;;;;;;24.17;17.17;;;20.40;91.70;;;;;;4988807;28;20026;-86
2023/09/17 11:34:09;;;;;;;22.60;17.30;;;20.40;91.70;;;;;;5005287;28;20030;-85
2023/09/17 11:36:35;;;;;;;23.35;17.38;;;20.60;91.80;;;;;;4988969;28;20481;-85
2023/09/17 11:39:05;;;;;;;22.42;16.77;;;20.70;91.60;;;;;;5006482;28;20058;-85
2023/09/17 11:41:35;;;;;;;19.45;14.27;;;20.70;91.50;;;;;;4989426;28;20101;-85
2023/09/17 11:44:03;;;;;;;23.75;18.67;;;20.80;91.30;;;;;;5005942;28;20034;-85
2023/09/17 11:46:29;;;;;;;20.42;16.30;;;20.90;91.20;;;;;;4992277;28;20026;-85
2023/09/17 11:48:55;;;;;;;24.38;18.90;;;21.00;91.10;;;;;;4990815;28;20167;-85
2023/09/17 11:51:29;;;;;;;27.30;21.42;;;21.00;91.00;;;;;;4989699;28;20034;-85
2023/09/17 11:53:58;;;;;;;28.70;23.13;;;21.10;91.00;;;;;;4989284;28;20038;-85
2023/09/17 11:56:27;;;;;;;25.42;19.75;;;21.10;91.00;;;;;;4990253;28;20034;-85
2023/09/17 11:59:03;;;;;;;22.15;17.23;;;21.00;91.10;;;;;;5005805;28;20014;-85
2023/09/17 12:01:32;;;;;;;23.10;18.20;;;21.10;91.00;;;;;;4988153;28;20690;-84
2023/09/17 12:03:58;;;;;;;28.65;21.75;;;21.20;90.90;;;;;;4990119;28;20030;-85
2023/09/17 12:06:26;;;;;;;28.02;20.98;;;21.20;90.80;;;;;;4989621;28;20470;-85
2023/09/17 12:08:52;;;;;;;22.75;18.27;;;21.20;90.90;;;;;;4990039;28;20038;-85
2023/09/17 12:11:23;;;;;;;26.77;19.70;;;21.20;90.90;;;;;;4989759;28;20169;-85
2023/09/17 12:13:53;;;;;;;26.65;20.13;;;21.10;91.00;;;;;;4988260;28;20080;-85
2023/09/17 12:16:27;;;;;;;21.92;16.42;;;21.10;91.00;;;;;;4988257;28;20030;-85
2023/09/17 12:18:54;;;;;;;26.73;20.23;;;21.20;91.10;;;;;;4990340;28;20018;-85
2023/09/17 12:21:22;;;;;;;25.33;19.40;;;21.20;91.10;;;;;;4994136;28;20452;-85
2023/09/17 12:23:57;;;;;;;25.35;19.25;;;21.20;91.10;;;;;;4990167;28;20538;-85
2023/09/17 12:26:37;;;;;;;25.42;20.35;;;21.00;91.20;;;;;;4989021;28;20528;-85
2023/09/17 12:29:09;;;;;;;27.83;21.38;;;21.00;91.30;;;;;;4991603;28;20084;-85
2023/09/17 12:31:36;;;;;;;24.27;19.10;;;20.90;91.50;;;;;;4989121;28;20068;-84
2023/09/17 12:34:03;;;;;;;20.48;16.27;;;20.90;91.60;;;;;;4989905;28;20034;-85